sensor_id;sensor_type;location;lat;lon;timestamp;temperature;humidity
80426;DHT22;69766;51.476;5.704;2023-07-20T00:00:52;17.40;99.90
80426;DHT22;69766;51.476;5.704;2023-07-20T00:03:19;17.30;99.90
80426;DHT22;69766;51.476;5.704;2023-07-20T00:05:49;17.30;99.90
80426;DHT22;69766;51.476;5.704;2023-07-20T00:08:15;17.30;99.90
80426;DHT22;69766;51.476;5.704;2023-07-20T00:10:42;17.20;99.90
80426;DHT22;69766;51.476;5.704;2023-07-20T00:13:08;17.00;99.90
80426;DHT22;69766;51.476;5.704;2023-07-20T00:15:34;17.00;99.90
80426;DHT22;69766;51.476;5.704;2023-07-20T00:18:00;16.90;99.90
80426;DHT22;69766;51.476;5.704;2023-07-20T00:20:26;17.00;99.90
80426;DHT22;69766;51.476;5.704;2023-07-20T00:22:52;17.00;99.90
80426;DHT22;69766;51.476;5.704;2023-07-20T00:25:18;17.00;99.90
80426;DHT22;69766;51.476;5.704;2023-07-20T00:27:43;16.90;99.90
80426;DHT22;69766;51.476;5.704;2023-07-20T00:30:09;16.90;99.90
80426;DHT22;69766;51.476;5.704;2023-07-20T00:32:35;16.70;99.90
80426;DHT22;69766;51.476;5.704;2023-07-20T00:35:01;16.60;99.90
80426;DHT22;69766;51.476;5.704;2023-07-20T00:37:27;16.60;99.90
80426;DHT22;69766;51.476;5.704;2023-07-20T00:39:53;16.40;99.90
80426;DHT22;69766;51.476;5.704;2023-07-20T00:42:18;16.40;99.90
80426;DHT22;69766;51.476;5.704;2023-07-20T00:44:44;16.40;99.90
80426;DHT22;69766;51.476;5.704;2023-07-20T00:47:10;16.40;99.90
80426;DHT22;69766;51.476;5.704;2023-07-20T00:49:36;16.30;99.90
80426;DHT22;69766;51.476;5.704;2023-07-20T00:52:03;16.30;99.90
80426;DHT22;69766;51.476;5.704;2023-07-20T00:54:31;16.30;99.90
80426;DHT22;69766;51.476;5.704;2023-07-20T00:56:57;16.30;99.90
80426;DHT22;69766;51.476;5.704;2023-07-20T00:59:23;16.40;99.90
80426;DHT22;69766;51.476;5.704;2023-07-20T01:01:49;16.30;99.90
80426;DHT22;69766;51.476;5.704;2023-07-20T01:04:14;16.10;99.90
80426;DHT22;69766;51.476;5.704;2023-07-20T01:07:03;16.00;99.90
80426;DHT22;69766;51.476;5.704;2023-07-20T01:09:39;16.00;99.90
80426;DHT22;69766;51.476;5.704;2023-07-20T01:12:12;15.90;99.90
80426;DHT22;69766;51.476;5.704;2023-07-20T01:14:40;15.90;99.90
80426;DHT22;69766;51.476;5.704;2023-07-20T01:17:05;15.80;99.90
80426;DHT22;69766;51.476;5.704;2023-07-20T01:19:31;15.80;99.90
80426;DHT22;69766;51.476;5.704;2023-07-20T01:22:14;15.80;99.90
80426;DHT22;69766;51.476;5.704;2023-07-20T01:32:55;15.60;99.90
80426;DHT22;69766;51.476;5.704;2023-07-20T01:35:26;15.50;99.90
80426;DHT22;69766;51.476;5.704;2023-07-20T01:37:54;15.50;99.90
80426;DHT22;69766;51.476;5.704;2023-07-20T01:40:22;15.50;99.90
80426;DHT22;69766;51.476;5.704;2023-07-20T01:42:48;15.50;99.90
80426;DHT22;69766;51.476;5.704;2023-07-20T01:45:14;15.50;99.90
80426;DHT22;69766;51.476;5.704;2023-07-20T01:47:40;15.60;99.90
80426;DHT22;69766;51.476;5.704;2023-07-20T01:50:06;15.60;99.90
80426;DHT22;69766;51.476;5.704;2023-07-20T01:52:32;15.70;99.90
80426;DHT22;69766;51.476;5.704;2023-07-20T01:54:58;15.80;99.90
80426;DHT22;69766;51.476;5.704;2023-07-20T01:57:23;15.80;99.90
80426;DHT22;69766;51.476;5.704;2023-07-20T01:59:49;15.80;99.90
80426;DHT22;69766;51.476;5.704;2023-07-20T02:02:15;15.90;99.90
80426;DHT22;69766;51.476;5.704;2023-07-20T02:04:40;16.00;99.90
80426;DHT22;69766;51.476;5.704;2023-07-20T02:07:06;16.00;99.90
80426;DHT22;69766;51.476;5.704;2023-07-20T02:09:32;16.20;99.90
80426;DHT22;69766;51.476;5.704;2023-07-20T02:11:57;16.30;99.90
80426;DHT22;69766;51.476;5.704;2023-07-20T02:14:23;16.40;99.90
80426;DHT22;69766;51.476;5.704;2023-07-20T02:16:49;16.40;99.90
80426;DHT22;69766;51.476;5.704;2023-07-20T02:19:18;16.40;99.90
80426;DHT22;69766;51.476;5.704;2023-07-20T02:21:43;16.40;99.90
80426;DHT22;69766;51.476;5.704;2023-07-20T02:24:09;16.40;99.90
80426;DHT22;69766;51.476;5.704;2023-07-20T02:26:35;16.40;99.90
80426;DHT22;69766;51.476;5.704;2023-07-20T02:29:00;16.50;99.90
80426;DHT22;69766;51.476;5.704;2023-07-20T02:31:27;16.50;99.90
80426;DHT22;69766;51.476;5.704;2023-07-20T02:33:52;16.50;99.90
80426;DHT22;69766;51.476;5.704;2023-07-20T02:36:18;16.40;99.90
80426;DHT22;69766;51.476;5.704;2023-07-20T02:38:44;16.40;99.90
80426;DHT22;69766;51.476;5.704;2023-07-20T02:41:10;16.50;99.90
80426;DHT22;69766;51.476;5.704;2023-07-20T02:43:36;16.50;99.90
80426;DHT22;69766;51.476;5.704;2023-07-20T02:46:01;16.40;99.90
80426;DHT22;69766;51.476;5.704;2023-07-20T02:48:27;16.50;99.90
80426;DHT22;69766;51.476;5.704;2023-07-20T02:50:52;16.30;99.90
80426;DHT22;69766;51.476;5.704;2023-07-20T02:53:18;16.30;99.90
80426;DHT22;69766;51.476;5.704;2023-07-20T02:55:44;16.30;99.90
80426;DHT22;69766;51.476;5.704;2023-07-20T02:58:09;16.30;99.90
80426;DHT22;69766;51.476;5.704;2023-07-20T03:00:35;16.30;99.90
80426;DHT22;69766;51.476;5.704;2023-07-20T03:03:01;16.30;99.90
80426;DHT22;69766;51.476;5.704;2023-07-20T03:05:27;16.20;99.90
80426;DHT22;69766;51.476;5.704;2023-07-20T03:07:53;16.20;99.90
80426;DHT22;69766;51.476;5.704;2023-07-20T03:10:19;16.20;99.90
80426;DHT22;69766;51.476;5.704;2023-07-20T03:12:44;16.10;99.90
80426;DHT22;69766;51.476;5.704;2023-07-20T03:15:10;16.20;99.90
80426;DHT22;69766;51.476;5.704;2023-07-20T03:17:36;16.10;99.90
80426;DHT22;69766;51.476;5.704;2023-07-20T03:20:01;16.10;99.90
80426;DHT22;69766;51.476;5.704;2023-07-20T03:22:28;16.10;99.90
80426;DHT22;69766;51.476;5.704;2023-07-20T03:24:53;16.10;99.90
80426;DHT22;69766;51.476;5.704;2023-07-20T03:27:19;16.10;99.90
80426;DHT22;69766;51.476;5.704;2023-07-20T03:29:45;16.10;99.90
80426;DHT22;69766;51.476;5.704;2023-07-20T03:32:10;16.10;99.90
80426;DHT22;69766;51.476;5.704;2023-07-20T03:34:36;16.10;99.90
80426;DHT22;69766;51.476;5.704;2023-07-20T03:37:02;16.10;99.90
80426;DHT22;69766;51.476;5.704;2023-07-20T03:39:30;16.10;99.90
80426;DHT22;69766;51.476;5.704;2023-07-20T03:41:55;16.10;99.90
80426;DHT22;69766;51.476;5.704;2023-07-20T03:44:22;16.10;99.90
80426;DHT22;69766;51.476;5.704;2023-07-20T03:46:48;16.10;99.90
80426;DHT22;69766;51.476;5.704;2023-07-20T03:49:14;16.00;99.90
80426;DHT22;69766;51.476;5.704;2023-07-20T03:51:39;15.90;99.90
80426;DHT22;69766;51.476;5.704;2023-07-20T03:54:05;16.00;99.90
80426;DHT22;69766;51.476;5.704;2023-07-20T03:56:30;16.00;99.90
80426;DHT22;69766;51.476;5.704;2023-07-20T03:59:00;16.00;99.90
80426;DHT22;69766;51.476;5.704;2023-07-20T04:01:26;15.90;99.90
80426;DHT22;69766;51.476;5.704;2023-07-20T04:03:52;15.90;99.90
80426;DHT22;69766;51.476;5.704;2023-07-20T04:06:17;15.90;99.90
80426;DHT22;69766;51.476;5.704;2023-07-20T04:08:44;16.00;99.90
80426;DHT22;69766;51.476;5.704;2023-07-20T04:11:10;16.00;99.90
80426;DHT22;69766;51.476;5.704;2023-07-20T04:13:36;16.00;99.90
80426;DHT22;69766;51.476;5.704;2023-07-20T04:16:01;15.90;99.90
80426;DHT22;69766;51.476;5.704;2023-07-20T04:18:28;15.90;99.90
80426;DHT22;69766;51.476;5.704;2023-07-20T04:20:53;15.90;99.90
80426;DHT22;69766;51.476;5.704;2023-07-20T04:23:19;15.80;99.90
80426;DHT22;69766;51.476;5.704;2023-07-20T04:25:45;15.70;99.90
80426;DHT22;69766;51.476;5.704;2023-07-20T04:28:11;15.60;99.90
80426;DHT22;69766;51.476;5.704;2023-07-20T04:30:37;15.60;99.90
80426;DHT22;69766;51.476;5.704;2023-07-20T04:33:03;15.50;99.90
80426;DHT22;69766;51.476;5.704;2023-07-20T04:38:10;15.30;99.90
80426;DHT22;69766;51.476;5.704;2023-07-20T04:40:36;15.20;99.90
80426;DHT22;69766;51.476;5.704;2023-07-20T04:43:01;15.20;99.90
80426;DHT22;69766;51.476;5.704;2023-07-20T04:45:28;15.20;99.90
80426;DHT22;69766;51.476;5.704;2023-07-20T04:47:54;15.20;99.90
80426;DHT22;69766;51.476;5.704;2023-07-20T04:50:19;15.10;99.90
80426;DHT22;69766;51.476;5.704;2023-07-20T04:52:45;15.10;99.90
80426;DHT22;69766;51.476;5.704;2023-07-20T04:55:11;15.10;99.90
80426;DHT22;69766;51.476;5.704;2023-07-20T04:57:37;15.10;99.90
80426;DHT22;69766;51.476;5.704;2023-07-20T05:00:03;15.20;99.90
80426;DHT22;69766;51.476;5.704;2023-07-20T05:02:29;15.20;99.90
80426;DHT22;69766;51.476;5.704;2023-07-20T05:04:54;15.30;99.90
80426;DHT22;69766;51.476;5.704;2023-07-20T05:07:20;15.40;99.90
80426;DHT22;69766;51.476;5.704;2023-07-20T05:09:46;15.50;99.90
80426;DHT22;69766;51.476;5.704;2023-07-20T05:12:11;15.60;99.90
80426;DHT22;69766;51.476;5.704;2023-07-20T05:14:38;15.60;99.90
80426;DHT22;69766;51.476;5.704;2023-07-20T05:17:04;15.70;99.90
80426;DHT22;69766;51.476;5.704;2023-07-20T05:19:30;15.90;99.90
80426;DHT22;69766;51.476;5.704;2023-07-20T05:21:56;15.90;99.90
80426;DHT22;69766;51.476;5.704;2023-07-20T05:24:21;15.80;99.90
80426;DHT22;69766;51.476;5.704;2023-07-20T05:26:47;15.70;99.90
80426;DHT22;69766;51.476;5.704;2023-07-20T05:29:13;15.60;99.90
80426;DHT22;69766;51.476;5.704;2023-07-20T05:31:39;15.60;99.90
80426;DHT22;69766;51.476;5.704;2023-07-20T05:34:05;15.50;99.90
80426;DHT22;69766;51.476;5.704;2023-07-20T05:36:30;15.50;99.90
80426;DHT22;69766;51.476;5.704;2023-07-20T05:38:56;15.50;99.90
80426;DHT22;69766;51.476;5.704;2023-07-20T05:41:22;15.50;99.90
80426;DHT22;69766;51.476;5.704;2023-07-20T05:43:48;15.50;99.90
80426;DHT22;69766;51.476;5.704;2023-07-20T05:46:14;15.60;99.90
80426;DHT22;69766;51.476;5.704;2023-07-20T05:48:39;15.60;99.90
80426;DHT22;69766;51.476;5.704;2023-07-20T05:51:05;15.70;99.90
80426;DHT22;69766;51.476;5.704;2023-07-20T05:53:31;15.70;99.90
80426;DHT22;69766;51.476;5.704;2023-07-20T05:55:57;15.80;99.90
80426;DHT22;69766;51.476;5.704;2023-07-20T05:58:23;15.90;99.90
80426;DHT22;69766;51.476;5.704;2023-07-20T06:00:49;15.90;99.90
80426;DHT22;69766;51.476;5.704;2023-07-20T06:03:15;15.90;99.90
80426;DHT22;69766;51.476;5.704;2023-07-20T06:05:42;16.00;99.90
80426;DHT22;69766;51.476;5.704;2023-07-20T06:08:08;16.20;99.90
80426;DHT22;69766;51.476;5.704;2023-07-20T06:10:34;16.30;99.90
80426;DHT22;69766;51.476;5.704;2023-07-20T06:12:59;16.40;99.90
80426;DHT22;69766;51.476;5.704;2023-07-20T06:15:31;16.60;99.90
80426;DHT22;69766;51.476;5.704;2023-07-20T06:17:57;16.60;99.90
80426;DHT22;69766;51.476;5.704;2023-07-20T06:20:23;16.60;99.90
80426;DHT22;69766;51.476;5.704;2023-07-20T06:22:49;16.70;99.90
80426;DHT22;69766;51.476;5.704;2023-07-20T06:25:15;16.70;99.90
80426;DHT22;69766;51.476;5.704;2023-07-20T06:27:42;16.80;99.90
80426;DHT22;69766;51.476;5.704;2023-07-20T06:30:08;16.90;99.90
80426;DHT22;69766;51.476;5.704;2023-07-20T06:32:34;16.90;99.90
80426;DHT22;69766;51.476;5.704;2023-07-20T06:34:59;17.00;99.90
80426;DHT22;69766;51.476;5.704;2023-07-20T06:37:25;17.00;99.90
80426;DHT22;69766;51.476;5.704;2023-07-20T06:39:51;17.40;99.90
80426;DHT22;69766;51.476;5.704;2023-07-20T06:42:17;17.80;99.90
80426;DHT22;69766;51.476;5.704;2023-07-20T06:44:42;18.20;99.90
80426;DHT22;69766;51.476;5.704;2023-07-20T06:47:08;18.80;99.90
80426;DHT22;69766;51.476;5.704;2023-07-20T06:49:33;19.60;99.90
80426;DHT22;69766;51.476;5.704;2023-07-20T06:51:59;20.00;99.90
80426;DHT22;69766;51.476;5.704;2023-07-20T06:54:25;20.10;99.90
80426;DHT22;69766;51.476;5.704;2023-07-20T06:56:51;20.20;99.90
80426;DHT22;69766;51.476;5.704;2023-07-20T06:59:16;20.70;99.60
80426;DHT22;69766;51.476;5.704;2023-07-20T07:01:42;21.30;97.10
80426;DHT22;69766;51.476;5.704;2023-07-20T07:04:08;21.10;96.60
80426;DHT22;69766;51.476;5.704;2023-07-20T07:06:34;21.10;96.00
80426;DHT22;69766;51.476;5.704;2023-07-20T07:09:02;20.50;97.80
80426;DHT22;69766;51.476;5.704;2023-07-20T07:11:29;19.70;99.30
80426;DHT22;69766;51.476;5.704;2023-07-20T07:13:54;19.90;99.70
80426;DHT22;69766;51.476;5.704;2023-07-20T07:16:20;20.20;99.30
80426;DHT22;69766;51.476;5.704;2023-07-20T07:18:46;20.70;98.60
80426;DHT22;69766;51.476;5.704;2023-07-20T07:21:12;21.00;96.10
80426;DHT22;69766;51.476;5.704;2023-07-20T07:23:40;20.30;97.20
80426;DHT22;69766;51.476;5.704;2023-07-20T07:26:06;20.40;97.60
80426;DHT22;69766;51.476;5.704;2023-07-20T07:28:32;21.00;96.00
80426;DHT22;69766;51.476;5.704;2023-07-20T07:30:58;20.90;95.80
80426;DHT22;69766;51.476;5.704;2023-07-20T07:33:23;20.20;97.40
80426;DHT22;69766;51.476;5.704;2023-07-20T07:35:52;19.50;99.10
80426;DHT22;69766;51.476;5.704;2023-07-20T07:38:19;19.20;99.90
80426;DHT22;69766;51.476;5.704;2023-07-20T07:40:45;18.90;99.90
80426;DHT22;69766;51.476;5.704;2023-07-20T07:43:10;18.80;99.90
80426;DHT22;69766;51.476;5.704;2023-07-20T07:45:37;18.60;99.90
80426;DHT22;69766;51.476;5.704;2023-07-20T07:48:03;18.50;99.90
80426;DHT22;69766;51.476;5.704;2023-07-20T07:50:29;18.50;99.90
80426;DHT22;69766;51.476;5.704;2023-07-20T07:52:55;18.50;99.90
80426;DHT22;69766;51.476;5.704;2023-07-20T07:55:21;18.50;99.90
80426;DHT22;69766;51.476;5.704;2023-07-20T07:57:46;18.60;99.90
80426;DHT22;69766;51.476;5.704;2023-07-20T08:00:13;18.60;99.90
80426;DHT22;69766;51.476;5.704;2023-07-20T08:02:43;18.60;99.90
80426;DHT22;69766;51.476;5.704;2023-07-20T08:05:09;18.60;99.90
80426;DHT22;69766;51.476;5.704;2023-07-20T08:07:36;18.40;99.90
80426;DHT22;69766;51.476;5.704;2023-07-20T08:10:02;18.80;99.90
80426;DHT22;69766;51.476;5.704;2023-07-20T08:12:28;20.80;98.00
80426;DHT22;69766;51.476;5.704;2023-07-20T08:14:53;22.60;92.60
80426;DHT22;69766;51.476;5.704;2023-07-20T08:17:19;22.70;90.20
80426;DHT22;69766;51.476;5.704;2023-07-20T08:19:46;23.30;88.70
80426;DHT22;69766;51.476;5.704;2023-07-20T08:22:12;23.40;84.90
80426;DHT22;69766;51.476;5.704;2023-07-20T08:24:41;23.80;82.50
80426;DHT22;69766;51.476;5.704;2023-07-20T08:27:08;24.80;76.70
80426;DHT22;69766;51.476;5.704;2023-07-20T08:29:34;25.50;72.10
80426;DHT22;69766;51.476;5.704;2023-07-20T08:32:00;25.80;71.00
80426;DHT22;69766;51.476;5.704;2023-07-20T08:34:25;26.80;69.80
80426;DHT22;69766;51.476;5.704;2023-07-20T08:36:51;27.50;67.50
80426;DHT22;69766;51.476;5.704;2023-07-20T08:39:17;27.20;63.40
80426;DHT22;69766;51.476;5.704;2023-07-20T08:41:43;27.00;64.00
80426;DHT22;69766;51.476;5.704;2023-07-20T08:44:10;27.20;63.50
80426;DHT22;69766;51.476;5.704;2023-07-20T08:46:38;27.20;62.00
80426;DHT22;69766;51.476;5.704;2023-07-20T08:49:04;27.30;61.80
80426;DHT22;69766;51.476;5.704;2023-07-20T08:51:30;27.80;60.20
80426;DHT22;69766;51.476;5.704;2023-07-20T08:53:56;27.40;59.70
80426;DHT22;69766;51.476;5.704;2023-07-20T08:56:25;25.90;62.30
80426;DHT22;69766;51.476;5.704;2023-07-20T08:58:53;25.50;63.50
80426;DHT22;69766;51.476;5.704;2023-07-20T09:01:19;23.70;66.80
80426;DHT22;69766;51.476;5.704;2023-07-20T09:03:48;23.10;68.90
80426;DHT22;69766;51.476;5.704;2023-07-20T09:06:15;22.70;70.60
80426;DHT22;69766;51.476;5.704;2023-07-20T09:08:41;22.40;73.50
80426;DHT22;69766;51.476;5.704;2023-07-20T09:11:09;22.50;73.10
80426;DHT22;69766;51.476;5.704;2023-07-20T09:13:35;23.10;72.40
80426;DHT22;69766;51.476;5.704;2023-07-20T09:16:01;24.00;69.80
80426;DHT22;69766;51.476;5.704;2023-07-20T09:18:32;26.10;64.10
80426;DHT22;69766;51.476;5.704;2023-07-20T09:21:04;27.20;59.00
80426;DHT22;69766;51.476;5.704;2023-07-20T09:23:37;28.90;56.40
80426;DHT22;69766;51.476;5.704;2023-07-20T09:26:10;29.80;53.20
80426;DHT22;69766;51.476;5.704;2023-07-20T09:28:44;30.20;50.20
80426;DHT22;69766;51.476;5.704;2023-07-20T09:31:17;28.40;51.10
80426;DHT22;69766;51.476;5.704;2023-07-20T09:33:44;26.50;55.00
80426;DHT22;69766;51.476;5.704;2023-07-20T09:36:10;26.70;56.20
80426;DHT22;69766;51.476;5.704;2023-07-20T09:38:37;28.50;53.80
80426;DHT22;69766;51.476;5.704;2023-07-20T09:41:05;28.60;52.40
80426;DHT22;69766;51.476;5.704;2023-07-20T09:43:33;29.70;51.40
80426;DHT22;69766;51.476;5.704;2023-07-20T09:45:59;29.80;49.90
80426;DHT22;69766;51.476;5.704;2023-07-20T09:48:26;29.30;50.10
80426;DHT22;69766;51.476;5.704;2023-07-20T09:50:52;29.40;49.20
80426;DHT22;69766;51.476;5.704;2023-07-20T09:53:19;28.90;49.50
80426;DHT22;69766;51.476;5.704;2023-07-20T09:55:46;27.80;51.60
80426;DHT22;69766;51.476;5.704;2023-07-20T09:58:13;28.40;52.20
80426;DHT22;69766;51.476;5.704;2023-07-20T10:00:40;29.10;50.70
80426;DHT22;69766;51.476;5.704;2023-07-20T10:03:11;29.50;49.80
80426;DHT22;69766;51.476;5.704;2023-07-20T10:05:42;30.30;47.10
80426;DHT22;69766;51.476;5.704;2023-07-20T10:08:11;31.20;46.40
80426;DHT22;69766;51.476;5.704;2023-07-20T10:10:41;30.20;46.40
80426;DHT22;69766;51.476;5.704;2023-07-20T10:13:18;29.30;48.20
80426;DHT22;69766;51.476;5.704;2023-07-20T10:15:54;28.40;49.50
80426;DHT22;69766;51.476;5.704;2023-07-20T10:18:28;28.10;50.90
80426;DHT22;69766;51.476;5.704;2023-07-20T10:20:55;26.80;51.30
80426;DHT22;69766;51.476;5.704;2023-07-20T10:23:22;26.20;53.10
80426;DHT22;69766;51.476;5.704;2023-07-20T10:25:48;25.80;55.60
80426;DHT22;69766;51.476;5.704;2023-07-20T10:28:14;25.00;58.00
80426;DHT22;69766;51.476;5.704;2023-07-20T10:30:40;24.80;58.90
80426;DHT22;69766;51.476;5.704;2023-07-20T10:33:07;24.30;58.80
80426;DHT22;69766;51.476;5.704;2023-07-20T10:35:53;23.90;60.80
80426;DHT22;69766;51.476;5.704;2023-07-20T10:41:37;23.80;61.40
80426;DHT22;69766;51.476;5.704;2023-07-20T10:44:07;25.60;56.70
80426;DHT22;69766;51.476;5.704;2023-07-20T10:49:04;28.30;51.40
80426;DHT22;69766;51.476;5.704;2023-07-20T10:51:39;28.10;51.50
80426;DHT22;69766;51.476;5.704;2023-07-20T10:54:08;27.40;51.60
80426;DHT22;69766;51.476;5.704;2023-07-20T10:56:34;26.30;54.00
80426;DHT22;69766;51.476;5.704;2023-07-20T10:59:00;25.90;56.50
80426;DHT22;69766;51.476;5.704;2023-07-20T11:01:30;25.30;56.40
80426;DHT22;69766;51.476;5.704;2023-07-20T11:04:00;25.50;56.90
80426;DHT22;69766;51.476;5.704;2023-07-20T11:09:10;26.40;53.40
80426;DHT22;69766;51.476;5.704;2023-07-20T11:11:41;25.90;56.60
80426;DHT22;69766;51.476;5.704;2023-07-20T11:14:10;27.60;56.00
80426;DHT22;69766;51.476;5.704;2023-07-20T11:16:46;28.40;51.40
80426;DHT22;69766;51.476;5.704;2023-07-20T11:19:25;28.00;50.00
80426;DHT22;69766;51.476;5.704;2023-07-20T11:21:53;27.40;51.40
80426;DHT22;69766;51.476;5.704;2023-07-20T11:24:19;26.70;52.90
80426;DHT22;69766;51.476;5.704;2023-07-20T11:26:50;26.20;54.00
80426;DHT22;69766;51.476;5.704;2023-07-20T11:29:17;25.40;55.20
80426;DHT22;69766;51.476;5.704;2023-07-20T11:31:44;25.00;56.90
80426;DHT22;69766;51.476;5.704;2023-07-20T11:34:18;25.70;56.10
80426;DHT22;69766;51.476;5.704;2023-07-20T11:36:45;27.00;54.60
80426;DHT22;69766;51.476;5.704;2023-07-20T11:39:13;29.10;51.00
80426;DHT22;69766;51.476;5.704;2023-07-20T11:41:44;29.40;47.40
80426;DHT22;69766;51.476;5.704;2023-07-20T11:44:10;28.40;50.10
80426;DHT22;69766;51.476;5.704;2023-07-20T11:46:41;28.00;48.10
80426;DHT22;69766;51.476;5.704;2023-07-20T11:49:08;26.40;50.30
80426;DHT22;69766;51.476;5.704;2023-07-20T11:51:34;25.60;52.80
80426;DHT22;69766;51.476;5.704;2023-07-20T11:54:01;25.40;53.50
80426;DHT22;69766;51.476;5.704;2023-07-20T11:56:27;24.90;54.00
80426;DHT22;69766;51.476;5.704;2023-07-20T11:59:00;24.10;55.70
80426;DHT22;69766;51.476;5.704;2023-07-20T12:01:28;24.00;57.00
80426;DHT22;69766;51.476;5.704;2023-07-20T12:04:01;23.90;58.10
80426;DHT22;69766;51.476;5.704;2023-07-20T12:06:31;24.10;58.20
80426;DHT22;69766;51.476;5.704;2023-07-20T12:08:59;23.90;58.20
80426;DHT22;69766;51.476;5.704;2023-07-20T12:11:36;23.70;58.40
80426;DHT22;69766;51.476;5.704;2023-07-20T12:14:12;23.70;59.70
80426;DHT22;69766;51.476;5.704;2023-07-20T12:16:37;23.70;60.10
80426;DHT22;69766;51.476;5.704;2023-07-20T12:19:10;23.90;59.60
80426;DHT22;69766;51.476;5.704;2023-07-20T12:21:40;25.30;56.60
80426;DHT22;69766;51.476;5.704;2023-07-20T12:24:07;25.80;53.90
80426;DHT22;69766;51.476;5.704;2023-07-20T12:26:34;26.40;53.20
80426;DHT22;69766;51.476;5.704;2023-07-20T12:29:00;26.70;52.70
80426;DHT22;69766;51.476;5.704;2023-07-20T12:31:27;26.60;52.30
80426;DHT22;69766;51.476;5.704;2023-07-20T12:33:54;26.40;53.00
80426;DHT22;69766;51.476;5.704;2023-07-20T12:36:23;25.50;54.20
80426;DHT22;69766;51.476;5.704;2023-07-20T12:38:49;25.40;55.40
80426;DHT22;69766;51.476;5.704;2023-07-20T12:41:15;25.30;55.40
80426;DHT22;69766;51.476;5.704;2023-07-20T12:43:41;25.20;55.00
80426;DHT22;69766;51.476;5.704;2023-07-20T12:46:08;25.70;53.20
80426;DHT22;69766;51.476;5.704;2023-07-20T12:48:36;27.00;52.00
80426;DHT22;69766;51.476;5.704;2023-07-20T12:51:06;28.40;49.50
80426;DHT22;69766;51.476;5.704;2023-07-20T12:53:33;28.20;48.30
80426;DHT22;69766;51.476;5.704;2023-07-20T12:56:01;27.90;49.80
80426;DHT22;69766;51.476;5.704;2023-07-20T12:58:27;26.30;52.60
80426;DHT22;69766;51.476;5.704;2023-07-20T13:00:53;26.00;53.10
80426;DHT22;69766;51.476;5.704;2023-07-20T13:03:18;25.60;53.10
80426;DHT22;69766;51.476;5.704;2023-07-20T13:05:45;25.30;54.00
80426;DHT22;69766;51.476;5.704;2023-07-20T13:08:11;24.90;54.30
80426;DHT22;69766;51.476;5.704;2023-07-20T13:10:37;24.90;54.70
80426;DHT22;69766;51.476;5.704;2023-07-20T13:13:04;24.90;54.70
80426;DHT22;69766;51.476;5.704;2023-07-20T13:15:31;24.80;55.30
80426;DHT22;69766;51.476;5.704;2023-07-20T13:17:59;24.90;55.40
80426;DHT22;69766;51.476;5.704;2023-07-20T13:20:26;24.70;55.50
80426;DHT22;69766;51.476;5.704;2023-07-20T13:22:52;24.40;56.60
80426;DHT22;69766;51.476;5.704;2023-07-20T13:25:17;24.50;56.40
80426;DHT22;69766;51.476;5.704;2023-07-20T13:27:44;24.60;56.40
80426;DHT22;69766;51.476;5.704;2023-07-20T13:30:10;24.80;56.90
80426;DHT22;69766;51.476;5.704;2023-07-20T13:32:45;25.00;56.20
80426;DHT22;69766;51.476;5.704;2023-07-20T13:35:11;25.00;56.20
80426;DHT22;69766;51.476;5.704;2023-07-20T13:37:37;25.10;56.40
80426;DHT22;69766;51.476;5.704;2023-07-20T13:40:03;25.20;56.00
80426;DHT22;69766;51.476;5.704;2023-07-20T13:42:31;25.80;55.40
80426;DHT22;69766;51.476;5.704;2023-07-20T13:44:57;25.90;55.50
80426;DHT22;69766;51.476;5.704;2023-07-20T13:47:22;26.10;55.30
80426;DHT22;69766;51.476;5.704;2023-07-20T13:49:48;26.20;53.50
80426;DHT22;69766;51.476;5.704;2023-07-20T13:52:14;26.00;54.50
80426;DHT22;69766;51.476;5.704;2023-07-20T13:54:40;26.40;53.80
80426;DHT22;69766;51.476;5.704;2023-07-20T13:57:06;27.00;53.70
80426;DHT22;69766;51.476;5.704;2023-07-20T13:59:32;27.10;51.30
80426;DHT22;69766;51.476;5.704;2023-07-20T14:01:57;27.00;52.60
80426;DHT22;69766;51.476;5.704;2023-07-20T14:04:23;26.90;51.80
80426;DHT22;69766;51.476;5.704;2023-07-20T14:06:49;28.00;49.60
80426;DHT22;69766;51.476;5.704;2023-07-20T14:09:15;29.00;49.30
80426;DHT22;69766;51.476;5.704;2023-07-20T14:11:41;28.20;49.60
80426;DHT22;69766;51.476;5.704;2023-07-20T14:14:06;28.80;47.60
80426;DHT22;69766;51.476;5.704;2023-07-20T14:16:32;28.50;49.60
80426;DHT22;69766;51.476;5.704;2023-07-20T14:18:58;30.00;46.70
80426;DHT22;69766;51.476;5.704;2023-07-20T14:21:24;30.50;46.70
80426;DHT22;69766;51.476;5.704;2023-07-20T14:23:52;30.40;45.90
80426;DHT22;69766;51.476;5.704;2023-07-20T14:26:21;29.40;45.80
80426;DHT22;69766;51.476;5.704;2023-07-20T14:28:46;28.30;49.10
80426;DHT22;69766;51.476;5.704;2023-07-20T14:31:12;27.80;49.20
80426;DHT22;69766;51.476;5.704;2023-07-20T14:33:38;27.60;50.30
80426;DHT22;69766;51.476;5.704;2023-07-20T14:36:04;26.60;51.50
80426;DHT22;69766;51.476;5.704;2023-07-20T14:38:34;26.30;52.90
80426;DHT22;69766;51.476;5.704;2023-07-20T14:41:00;26.60;52.50
80426;DHT22;69766;51.476;5.704;2023-07-20T14:43:25;27.60;50.10
80426;DHT22;69766;51.476;5.704;2023-07-20T14:45:51;28.30;48.70
80426;DHT22;69766;51.476;5.704;2023-07-20T14:48:17;29.00;47.30
80426;DHT22;69766;51.476;5.704;2023-07-20T14:50:43;28.40;47.40
80426;DHT22;69766;51.476;5.704;2023-07-20T14:53:12;27.90;47.90
80426;DHT22;69766;51.476;5.704;2023-07-20T14:55:38;28.30;48.80
80426;DHT22;69766;51.476;5.704;2023-07-20T14:58:04;27.80;48.90
80426;DHT22;69766;51.476;5.704;2023-07-20T15:00:29;27.00;50.10
80426;DHT22;69766;51.476;5.704;2023-07-20T15:02:56;26.20;51.20
80426;DHT22;69766;51.476;5.704;2023-07-20T15:05:22;25.10;54.50
80426;DHT22;69766;51.476;5.704;2023-07-20T15:07:49;24.80;55.30
80426;DHT22;69766;51.476;5.704;2023-07-20T15:10:15;24.80;55.60
80426;DHT22;69766;51.476;5.704;2023-07-20T15:12:41;24.80;57.30
80426;DHT22;69766;51.476;5.704;2023-07-20T15:15:09;24.50;56.00
80426;DHT22;69766;51.476;5.704;2023-07-20T15:17:36;24.40;56.20
80426;DHT22;69766;51.476;5.704;2023-07-20T15:20:03;24.20;56.70
80426;DHT22;69766;51.476;5.704;2023-07-20T15:22:34;24.10;56.30
80426;DHT22;69766;51.476;5.704;2023-07-20T15:25:03;24.10;57.20
80426;DHT22;69766;51.476;5.704;2023-07-20T15:27:29;24.20;56.70
80426;DHT22;69766;51.476;5.704;2023-07-20T15:29:55;23.90;56.80
80426;DHT22;69766;51.476;5.704;2023-07-20T15:32:21;23.80;57.50
80426;DHT22;69766;51.476;5.704;2023-07-20T15:34:47;23.60;58.90
80426;DHT22;69766;51.476;5.704;2023-07-20T15:37:13;23.40;58.90
80426;DHT22;69766;51.476;5.704;2023-07-20T15:39:39;23.20;59.40
80426;DHT22;69766;51.476;5.704;2023-07-20T15:42:05;23.20;60.00
80426;DHT22;69766;51.476;5.704;2023-07-20T15:44:31;23.10;59.40
80426;DHT22;69766;51.476;5.704;2023-07-20T15:46:57;23.00;59.50